Time;durP1;ratioP1;P1;durP2;ratioP2;P2;SDS_P1;SDS_P2;PMS_P1;PMS_P2;Temp;Humidity;BMP_temperature;BMP_pressure;BME280_temperature;BME280_humidity;BME280_pressure;Samples;Min_cycle;Max_cycle;Signal;HPM_P1;HPM_P2
2023/01/22 00:01:22;;;;;;;;;;;;;;;;;;5032461;28;1204;-68
2023/01/22 00:03:47;;;;;;;;;;;;;;;;;;5034190;28;900;-68
2023/01/22 00:06:13;;;;;;;;;;;;;;;;;;5016067;28;1485;-68
2023/01/22 00:08:39;;;;;;;;;;;;;;;;;;5033782;28;1902;-68
2023/01/22 00:11:04;;;;;;;;;;;;;;;;;;5032923;28;1090;-68
2023/01/22 00:13:29;;;;;;;;;;;;;;;;;;5032201;28;999;-68
2023/01/22 00:15:58;;;;;;;;;;;;;;;;;;5033495;28;920;-68
2023/01/22 00:18:24;;;;;;;;;;;;;;;;;;5033033;28;841;-68
2023/01/22 00:20:50;;;;;;;;;;;;;;;;;;5032348;28;1092;-68
2023/01/22 00:23:15;;;;;;;;;;;;;;;;;;5032940;28;763;-68
2023/01/22 00:25:41;;;;;;;;;;;;;;;;;;5033387;28;907;-68
2023/01/22 00:28:07;;;;;;;;;;;;;;;;;;5032926;28;1977;-68
2023/01/22 00:30:32;;;;;;;;;;;;;;;;;;5033546;28;939;-68
2023/01/22 00:32:57;;;;;;;;;;;;;;;;;;5031918;28;1007;-68
2023/01/22 00:35:23;;;;;;;;;;;;;;;;;;5031707;28;1405;-69
2023/01/22 00:37:49;;;;;;;;;;;;;;;;;;5032501;28;904;-68
2023/01/22 00:40:15;;;;;;;;;;;;;;;;;;5031387;28;1202;-68
2023/01/22 00:42:40;;;;;;;;;;;;;;;;;;5031664;28;1318;-68
2023/01/22 00:45:06;;;;;;;;;;;;;;;;;;5032619;28;832;-68
2023/01/22 00:47:31;;;;;;;;;;;;;;;;;;5033074;28;1961;-68
2023/01/22 00:49:56;;;;;;;;;;;;;;;;;;5033082;28;809;-68
2023/01/22 00:52:22;;;;;;;;;;;;;;;;;;5031361;28;896;-69
2023/01/22 00:54:47;;;;;;;;;;;;;;;;;;5033272;28;904;-68
2023/01/22 00:57:12;;;;;;;;;;;;;;;;;;5031369;28;893;-69
2023/01/22 00:59:37;;;;;;;;;;;;;;;;;;5015235;28;1217;-68
2023/01/22 01:02:03;;;;;;;;;;;;;;;;;;5033137;28;888;-68
2023/01/22 01:04:28;;;;;;;;;;;;;;;;;;5031267;28;1176;-68
2023/01/22 01:06:54;;;;;;;;;;;;;;;;;;5033164;28;1949;-68
2023/01/22 01:09:19;;;;;;;;;;;;;;;;;;5031629;28;838;-68
2023/01/22 01:11:45;;;;;;;;;;;;;;;;;;5031596;28;1059;-68
2023/01/22 01:14:11;;;;;;;;;;;;;;;;;;5032589;28;802;-69
2023/01/22 01:16:36;;;;;;;;;;;;;;;;;;5032861;28;909;-69
2023/01/22 01:19:03;;;;;;;;;;;;;;;;;;5031646;28;1204;-68
2023/01/22 01:21:28;;;;;;;;;;;;;;;;;;5031269;28;1176;-68
2023/01/22 01:23:54;;;;;;;;;;;;;;;;;;5031854;28;1103;-69
2023/01/22 01:26:20;;;;;;;;;;;;;;;;;;5030892;28;1275;-69
2023/01/22 01:28:46;;;;;;;;;;;;;;;;;;5030866;28;1979;-68
2023/01/22 01:31:13;;;;;;;;;;;;;;;;;;5029781;28;1347;-68
2023/01/22 01:33:38;;;;;;;;;;;;;;;;;;5028558;28;1201;-69
2023/01/22 01:36:13;;;;;;;;;;;;;;;;;;5029094;28;1177;-68
2023/01/22 01:38:38;;;;;;;;;;;;;;;;;;5029474;28;1153;-68
2023/01/22 01:41:04;;;;;;;;;;;;;;;;;;5013932;28;1224;-69
2023/01/22 01:43:29;;;;;;;;;;;;;;;;;;5030234;28;1235;-68
2023/01/22 01:45:56;;;;;;;;;;;;;;;;;;5032230;28;806;-68
2023/01/22 01:48:21;;;;;;;;;;;;;;;;;;5030981;28;1961;-68
2023/01/22 01:50:50;;;;;;;;;;;;;;;;;;5032015;28;889;-68
2023/01/22 01:53:16;;;;;;;;;;;;;;;;;;5031236;28;1023;-68
2023/01/22 01:55:41;;;;;;;;;;;;;;;;;;5030446;28;900;-68
2023/01/22 01:58:10;;;;;;;;;;;;;;;;;;5031484;28;872;-68
2023/01/22 02:00:37;;;;;;;;;;;;;;;;;;5030307;28;1477;-68
2023/01/22 02:03:02;;;;;;;;;;;;;;;;;;5031706;28;939;-68
2023/01/22 02:05:30;;;;;;;;;;;;;;;;;;5029860;28;1012;-68
2023/01/22 02:07:55;;;;;;;;;;;;;;;;;;5030077;28;1977;-68
2023/01/22 02:10:20;;;;;;;;;;;;;;;;;;5027948;28;1295;-68
2023/01/22 02:12:46;;;;;;;;;;;;;;;;;;5027815;28;1170;-69
2023/01/22 02:15:12;;;;;;;;;;;;;;;;;;5011346;28;1228;-68
2023/01/22 02:17:37;;;;;;;;;;;;;;;;;;5028058;28;1244;-68
2023/01/22 02:20:03;;;;;;;;;;;;;;;;;;5028282;28;1319;-69
2023/01/22 02:22:29;;;;;;;;;;;;;;;;;;5011612;28;1269;-68
2023/01/22 02:24:57;;;;;;;;;;;;;;;;;;5029999;28;1216;-68
2023/01/22 02:27:23;;;;;;;;;;;;;;;;;;5029219;28;1964;-68
2023/01/22 02:29:48;;;;;;;;;;;;;;;;;;5029656;28;1213;-68
2023/01/22 02:32:14;;;;;;;;;;;;;;;;;;5029674;28;1087;-68
2023/01/22 02:34:39;;;;;;;;;;;;;;;;;;5031801;28;867;-69
2023/01/22 02:37:04;;;;;;;;;;;;;;;;;;5030387;28;1178;-68
2023/01/22 02:39:30;;;;;;;;;;;;;;;;;;5031624;28;897;-68
2023/01/22 02:41:56;;;;;;;;;;;;;;;;;;5013983;28;1358;-68
2023/01/22 02:44:21;;;;;;;;;;;;;;;;;;5030105;28;1219;-68
2023/01/22 02:46:47;;;;;;;;;;;;;;;;;;5030569;28;1906;-69
2023/01/22 02:49:12;;;;;;;;;;;;;;;;;;5030591;28;1279;-69
2023/01/22 02:51:37;;;;;;;;;;;;;;;;;;5013773;28;1272;-68
2023/01/22 02:54:02;;;;;;;;;;;;;;;;;;5030957;28;885;-69
2023/01/22 02:56:28;;;;;;;;;;;;;;;;;;5029695;28;1278;-68
2023/01/22 02:58:53;;;;;;;;;;;;;;;;;;5029787;28;1184;-69
2023/01/22 03:01:20;;;;;;;;;;;;;;;;;;5014851;28;1212;-68
2023/01/22 03:03:46;;;;;;;;;;;;;;;;;;5033748;28;1259;-68
2023/01/22 03:06:14;;;;;;;;;;;;;;;;;;5034781;28;845;-68
2023/01/22 03:08:39;;;;;;;;;;;;;;;;;;5033218;28;1902;-69
2023/01/22 03:11:05;;;;;;;;;;;;;;;;;;5034662;28;1279;-68
2023/01/22 03:21:42;;;;;;;;;;;;;;;;;;5035412;28;675;-68
2023/01/22 03:24:08;;;;;;;;;;;;;;;;;;5033317;28;1192;-68
2023/01/22 03:26:34;;;;;;;;;;;;;;;;;;5034617;28;880;-68
2023/01/22 03:29:00;;;;;;;;;;;;;;;;;;5035042;28;1914;-68
2023/01/22 03:31:25;;;;;;;;;;;;;;;;;;5033271;28;802;-68
2023/01/22 03:33:50;;;;;;;;;;;;;;;;;;5033138;28;1148;-68
2023/01/22 03:36:15;;;;;;;;;;;;;;;;;;5034510;28;865;-68
2023/01/22 03:38:41;;;;;;;;;;;;;;;;;;5034317;28;888;-68
2023/01/22 03:41:09;;;;;;;;;;;;;;;;;;5034562;28;880;-68
2023/01/22 03:43:34;;;;;;;;;;;;;;;;;;5034353;28;755;-68
2023/01/22 03:46:06;;;;;;;;;;;;;;;;;;5034647;28;893;-68
2023/01/22 03:48:32;;;;;;;;;;;;;;;;;;5034416;28;1898;-67
2023/01/22 03:51:03;;;;;;;;;;;;;;;;;;5016893;28;1097;-68
2023/01/22 03:53:28;;;;;;;;;;;;;;;;;;5034224;28;885;-68
2023/01/22 03:55:58;;;;;;;;;;;;;;;;;;5033267;28;1309;-68
2023/01/22 03:58:23;;;;;;;;;;;;;;;;;;5016090;28;1335;-67
2023/01/22 04:00:49;;;;;;;;;;;;;;;;;;5016808;28;1394;-68
2023/01/22 04:03:14;;;;;;;;;;;;;;;;;;5034527;28;825;-68
2023/01/22 04:05:39;;;;;;;;;;;;;;;;;;5032928;28;1293;-68
2023/01/22 04:08:04;;;;;;;;;;;;;;;;;;5033326;28;1965;-67
2023/01/22 04:10:30;;;;;;;;;;;;;;;;;;5033810;28;874;-68
2023/01/22 04:12:55;;;;;;;;;;;;;;;;;;5014681;28;1299;-68
2023/01/22 04:15:20;;;;;;;;;;;;;;;;;;5016096;28;1235;-68
2023/01/22 04:17:46;;;;;;;;;;;;;;;;;;5032379;28;805;-68
2023/01/22 04:20:11;;;;;;;;;;;;;;;;;;5032456;28;1148;-68
2023/01/22 04:22:36;;;;;;;;;;;;;;;;;;5032288;28;1232;-68
2023/01/22 04:25:02;;;;;;;;;;;;;;;;;;5032827;28;862;-68
2023/01/22 04:27:27;;;;;;;;;;;;;;;;;;5032108;28;1918;-68
2023/01/22 04:29:52;;;;;;;;;;;;;;;;;;5033449;28;897;-68
2023/01/22 04:32:18;;;;;;;;;;;;;;;;;;5016138;28;1339;-68
2023/01/22 04:34:43;;;;;;;;;;;;;;;;;;5031967;28;1039;-67
2023/01/22 04:37:08;;;;;;;;;;;;;;;;;;5031911;28;817;-68
2023/01/22 04:39:33;;;;;;;;;;;;;;;;;;5032934;28;973;-68
2023/01/22 04:41:59;;;;;;;;;;;;;;;;;;5032145;28;1290;-68
2023/01/22 04:44:24;;;;;;;;;;;;;;;;;;5031975;28;821;-67
2023/01/22 04:46:49;;;;;;;;;;;;;;;;;;5033287;28;1910;-68
2023/01/22 04:49:14;;;;;;;;;;;;;;;;;;5032930;28;782;-68
2023/01/22 04:51:39;;;;;;;;;;;;;;;;;;5031504;28;893;-67
2023/01/22 04:54:05;;;;;;;;;;;;;;;;;;5033173;28;951;-68
2023/01/22 04:56:30;;;;;;;;;;;;;;;;;;5031350;28;1147;-68
2023/01/22 04:58:55;;;;;;;;;;;;;;;;;;5015731;28;1192;-68
2023/01/22 05:01:21;;;;;;;;;;;;;;;;;;5031582;28;988;-67
2023/01/22 05:03:46;;;;;;;;;;;;;;;;;;5015052;28;1273;-67
2023/01/22 05:06:12;;;;;;;;;;;;;;;;;;5031404;28;1252;-68
2023/01/22 05:08:37;;;;;;;;;;;;;;;;;;5032789;28;1964;-68
2023/01/22 05:11:02;;;;;;;;;;;;;;;;;;5031627;28;1281;-68
2023/01/22 05:13:28;;;;;;;;;;;;;;;;;;5031584;28;1168;-67
2023/01/22 05:15:53;;;;;;;;;;;;;;;;;;5032853;28;955;-68
2023/01/22 05:18:18;;;;;;;;;;;;;;;;;;5031492;28;1294;-68
2023/01/22 05:20:43;;;;;;;;;;;;;;;;;;5031692;28;826;-67
2023/01/22 05:23:09;;;;;;;;;;;;;;;;;;5032418;28;928;-67
2023/01/22 05:25:34;;;;;;;;;;;;;;;;;;5031812;28;1212;-68
2023/01/22 05:27:59;;;;;;;;;;;;;;;;;;5032722;28;1918;-68
2023/01/22 05:30:24;;;;;;;;;;;;;;;;;;5031152;28;1124;-68
2023/01/22 05:32:53;;;;;;;;;;;;;;;;;;5014988;28;1273;-68
2023/01/22 05:35:18;;;;;;;;;;;;;;;;;;5032537;28;913;-68
2023/01/22 05:37:44;;;;;;;;;;;;;;;;;;5031117;28;826;-67
2023/01/22 05:40:09;;;;;;;;;;;;;;;;;;5030940;28;1015;-68
2023/01/22 05:42:34;;;;;;;;;;;;;;;;;;5030286;28;1223;-67
2023/01/22 05:45:00;;;;;;;;;;;;;;;;;;5031969;28;928;-68
2023/01/22 05:47:25;;;;;;;;;;;;;;;;;;5031779;28;1906;-67
2023/01/22 05:49:50;;;;;;;;;;;;;;;;;;5014445;28;1288;-67
2023/01/22 05:52:16;;;;;;;;;;;;;;;;;;5014157;28;1193;-69
2023/01/22 05:54:41;;;;;;;;;;;;;;;;;;5031565;28;897;-66
2023/01/22 05:57:07;;;;;;;;;;;;;;;;;;5031794;28;797;-67
2023/01/22 05:59:32;;;;;;;;;;;;;;;;;;5030212;28;1227;-67
2023/01/22 06:01:57;;;;;;;;;;;;;;;;;;5031781;28;959;-66
2023/01/22 06:04:22;;;;;;;;;;;;;;;;;;5030110;28;1250;-66
2023/01/22 06:06:48;;;;;;;;;;;;;;;;;;5013915;28;1191;-67
2023/01/22 06:09:13;;;;;;;;;;;;;;;;;;5031291;28;1898;-66
2023/01/22 06:11:38;;;;;;;;;;;;;;;;;;5031260;28;1209;-67
2023/01/22 06:14:04;;;;;;;;;;;;;;;;;;5031482;28;837;-66
2023/01/22 06:16:29;;;;;;;;;;;;;;;;;;5031522;28;833;-66
2023/01/22 06:18:54;;;;;;;;;;;;;;;;;;5031216;28;877;-67
2023/01/22 06:21:19;;;;;;;;;;;;;;;;;;5030195;28;1151;-67
2023/01/22 06:23:45;;;;;;;;;;;;;;;;;;5030300;28;1173;-67
2023/01/22 06:26:10;;;;;;;;;;;;;;;;;;5031605;28;995;-69
2023/01/22 06:28:35;;;;;;;;;;;;;;;;;;5029906;28;1971;-67
2023/01/22 06:31:04;;;;;;;;;;;;;;;;;;5031221;28;940;-68
2023/01/22 06:33:30;;;;;;;;;;;;;;;;;;5031032;28;810;-66
2023/01/22 06:35:55;;;;;;;;;;;;;;;;;;5030082;28;909;-67
2023/01/22 06:38:21;;;;;;;;;;;;;;;;;;5031306;28;833;-67
2023/01/22 06:40:50;;;;;;;;;;;;;;;;;;5030207;28;1484;-68
2023/01/22 06:43:16;;;;;;;;;;;;;;;;;;5031090;28;1045;-68
2023/01/22 06:45:41;;;;;;;;;;;;;;;;;;5030116;28;813;-68
2023/01/22 06:48:06;;;;;;;;;;;;;;;;;;5014337;28;1886;-67
2023/01/22 06:50:31;;;;;;;;;;;;;;;;;;5013893;28;1431;-67
2023/01/22 06:52:58;;;;;;;;;;;;;;;;;;5013990;28;1122;-67
2023/01/22 06:55:24;;;;;;;;;;;;;;;;;;5029776;28;1105;-67
2023/01/22 06:57:53;;;;;;;;;;;;;;;;;;5028523;28;1252;-67
2023/01/22 07:00:18;;;;;;;;;;;;;;;;;;5028898;28;1365;-67
2023/01/22 07:02:44;;;;;;;;;;;;;;;;;;5013089;28;1193;-67
2023/01/22 07:05:09;;;;;;;;;;;;;;;;;;5029407;28;1291;-67
2023/01/22 07:07:35;;;;;;;;;;;;;;;;;;5028873;28;1950;-67
2023/01/22 07:10:00;;;;;;;;;;;;;;;;;;5027704;28;1307;-67
2023/01/22 07:12:26;;;;;;;;;;;;;;;;;;5012461;28;1379;-67
2023/01/22 07:14:51;;;;;;;;;;;;;;;;;;5013413;28;1207;-67
2023/01/22 07:17:17;;;;;;;;;;;;;;;;;;5029530;28;1315;-67
2023/01/22 07:19:42;;;;;;;;;;;;;;;;;;5029079;28;1294;-67
2023/01/22 07:22:07;;;;;;;;;;;;;;;;;;5029563;28;1198;-67
2023/01/22 07:24:32;;;;;;;;;;;;;;;;;;5030767;28;904;-67
2023/01/22 07:26:58;;;;;;;;;;;;;;;;;;5029416;28;1891;-66
2023/01/22 07:29:23;;;;;;;;;;;;;;;;;;5028799;28;1263;-67
2023/01/22 07:31:48;;;;;;;;;;;;;;;;;;5030962;28;767;-67
2023/01/22 07:34:13;;;;;;;;;;;;;;;;;;5012914;28;1329;-71
2023/01/22 07:36:39;;;;;;;;;;;;;;;;;;5014216;28;1219;-73
2023/01/22 07:39:04;;;;;;;;;;;;;;;;;;5030472;28;1287;-73
2023/01/22 07:41:30;;;;;;;;;;;;;;;;;;5030786;28;999;-73
2023/01/22 07:43:56;;;;;;;;;;;;;;;;;;5031210;28;1128;-72
2023/01/22 07:46:22;;;;;;;;;;;;;;;;;;5015809;28;1384;-73
2023/01/22 07:48:47;;;;;;;;;;;;;;;;;;5018591;28;1975;-72
2023/01/22 07:51:12;;;;;;;;;;;;;;;;;;5036526;28;991;-72
2023/01/22 07:53:38;;;;;;;;;;;;;;;;;;5018658;28;1263;-73
2023/01/22 07:56:04;;;;;;;;;;;;;;;;;;5034694;28;1172;-73
2023/01/22 07:58:30;;;;;;;;;;;;;;;;;;5018827;28;1284;-73
2023/01/22 08:00:55;;;;;;;;;;;;;;;;;;5034802;28;1235;-73
2023/01/22 08:03:20;;;;;;;;;;;;;;;;;;5016575;28;1184;-73
2023/01/22 08:05:45;;;;;;;;;;;;;;;;;;5016532;28;1208;-73
2023/01/22 08:08:12;;;;;;;;;;;;;;;;;;5034577;28;1898;-73
2023/01/22 08:10:37;;;;;;;;;;;;;;;;;;5016628;28;1327;-73
2023/01/22 08:13:03;;;;;;;;;;;;;;;;;;5033100;28;1251;-73
2023/01/22 08:15:28;;;;;;;;;;;;;;;;;;5034025;28;821;-71
2023/01/22 08:17:53;;;;;;;;;;;;;;;;;;5016103;28;1366;-71
2023/01/22 08:20:19;;;;;;;;;;;;;;;;;;5034496;28;978;-71
2023/01/22 08:22:45;;;;;;;;;;;;;;;;;;5034349;28;888;-71
2023/01/22 08:25:10;;;;;;;;;;;;;;;;;;5016290;28;1231;-71
2023/01/22 08:27:35;;;;;;;;;;;;;;;;;;5032667;28;1910;-71
2023/01/22 08:30:01;;;;;;;;;;;;;;;;;;5033660;28;869;-71
2023/01/22 08:32:27;;;;;;;;;;;;;;;;;;5032965;28;1200;-73
2023/01/22 08:34:53;;;;;;;;;;;;;;;;;;5032832;28;916;-73
2023/01/22 08:37:19;;;;;;;;;;;;;;;;;;5032669;28;841;-73
2023/01/22 08:39:45;;;;;;;;;;;;;;;;;;5015960;28;1200;-73
2023/01/22 08:42:10;;;;;;;;;;;;;;;;;;5032396;28;1037;-73
2023/01/22 08:44:35;;;;;;;;;;;;;;;;;;5033275;28;833;-73
2023/01/22 08:47:01;;;;;;;;;;;;;;;;;;5015592;28;1918;-73
2023/01/22 08:49:26;;;;;;;;;;;;;;;;;;5033649;28;972;-73
2023/01/22 08:51:52;;;;;;;;;;;;;;;;;;5015652;28;1209;-73
2023/01/22 08:54:17;;;;;;;;;;;;;;;;;;5031930;28;1314;-73
2023/01/22 08:56:43;;;;;;;;;;;;;;;;;;5015403;28;1311;-73
2023/01/22 08:59:08;;;;;;;;;;;;;;;;;;5031151;28;1148;-73
2023/01/22 09:01:34;;;;;;;;;;;;;;;;;;5031707;28;1357;-73
2023/01/22 09:03:59;;;;;;;;;;;;;;;;;;5032909;28;987;-73
2023/01/22 09:06:25;;;;;;;;;;;;;;;;;;5033063;28;901;-73
2023/01/22 09:08:52;;;;;;;;;;;;;;;;;;5032008;28;1887;-73
2023/01/22 09:11:17;;;;;;;;;;;;;;;;;;5015146;28;1330;-73
2023/01/22 09:13:42;;;;;;;;;;;;;;;;;;5031834;28;991;-73
2023/01/22 09:16:11;;;;;;;;;;;;;;;;;;5015263;28;1406;-73
2023/01/22 09:18:38;;;;;;;;;;;;;;;;;;5015596;28;1287;-73
2023/01/22 09:21:04;;;;;;;;;;;;;;;;;;5031772;28;1520;-73
2023/01/22 09:23:30;;;;;;;;;;;;;;;;;;5015587;28;1256;-73
2023/01/22 09:25:55;;;;;;;;;;;;;;;;;;5031401;28;1128;-73
2023/01/22 09:28:21;;;;;;;;;;;;;;;;;;5014882;28;1895;-73
2023/01/22 09:30:47;;;;;;;;;;;;;;;;;;5031950;28;1240;-73
2023/01/22 09:33:12;;;;;;;;;;;;;;;;;;5031469;28;1314;-74
2023/01/22 09:35:37;;;;;;;;;;;;;;;;;;5031921;28;1120;-73
2023/01/22 09:38:04;;;;;;;;;;;;;;;;;;5031322;28;1291;-74
2023/01/22 09:40:42;;;;;;;;;;;;;;;;;;5031860;28;1315;-73
2023/01/22 09:43:26;;;;;;;;;;;;;;;;;;5032705;28;871;-73
2023/01/22 09:45:57;;;;;;;;;;;;;;;;;;5032201;28;1366;-74
2023/01/22 09:48:25;;;;;;;;;;;;;;;;;;5031630;28;1902;-73
2023/01/22 09:50:51;;;;;;;;;;;;;;;;;;5031545;28;1339;-73
2023/01/22 09:53:18;;;;;;;;;;;;;;;;;;5032879;28;841;-74
2023/01/22 09:55:46;;;;;;;;;;;;;;;;;;5032792;28;1089;-73
2023/01/22 09:58:21;;;;;;;;;;;;;;;;;;5031466;28;1175;-73
2023/01/22 10:00:55;;;;;;;;;;;;;;;;;;5031074;28;1275;-74
2023/01/22 10:03:20;;;;;;;;;;;;;;;;;;5030874;28;1278;-74
2023/01/22 10:05:48;;;;;;;;;;;;;;;;;;5031261;28;1089;-74
2023/01/22 10:08:19;;;;;;;;;;;;;;;;;;5030371;28;1902;-73
2023/01/22 10:10:45;;;;;;;;;;;;;;;;;;5029903;28;1523;-73
2023/01/22 10:13:31;;;;;;;;;;;;;;;;;;5030668;28;1271;-74
2023/01/22 10:15:57;;;;;;;;;;;;;;;;;;5030291;28;1183;-73
2023/01/22 10:18:25;;;;;;;;;;;;;;;;;;5013647;28;1242;-73
2023/01/22 10:20:51;;;;;;;;;;;;;;;;;;5031764;28;1009;-73
2023/01/22 10:23:18;;;;;;;;;;;;;;;;;;5032238;28;829;-73
2023/01/22 10:25:43;;;;;;;;;;;;;;;;;;5031700;28;1395;-73
2023/01/22 10:28:09;;;;;;;;;;;;;;;;;;5030355;28;1910;-73
2023/01/22 10:30:43;;;;;;;;;;;;;;;;;;5030035;28;1381;-73
2023/01/22 10:33:15;;;;;;;;;;;;;;;;;;5031364;28;932;-73
2023/01/22 10:35:41;;;;;;;;;;;;;;;;;;5031422;28;859;-74
2023/01/22 10:38:19;;;;;;;;;;;;;;;;;;5030196;28;1199;-73
2023/01/22 10:40:44;;;;;;;;;;;;;;;;;;5030072;28;1180;-73
2023/01/22 10:43:14;;;;;;;;;;;;;;;;;;5030028;28;931;-73
2023/01/22 10:45:52;;;;;;;;;;;;;;;;;;5031428;28;857;-73
2023/01/22 10:48:18;;;;;;;;;;;;;;;;;;5029519;28;1906;-73
2023/01/22 10:50:44;;;;;;;;;;;;;;;;;;5029039;28;1208;-73
2023/01/22 10:53:16;;;;;;;;;;;;;;;;;;5028647;28;1328;-73
2023/01/22 10:55:41;;;;;;;;;;;;;;;;;;5028863;28;1293;-73
2023/01/22 10:58:14;;;;;;;;;;;;;;;;;;5028919;28;1170;-73
2023/01/22 11:00:39;;;;;;;;;;;;;;;;;;5031581;28;886;-73
2023/01/22 11:03:21;;;;;;;;;;;;;;;;;;5031966;28;999;-73
2023/01/22 11:05:50;;;;;;;;;;;;;;;;;;5031171;28;1489;-73
2023/01/22 11:08:17;;;;;;;;;;;;;;;;;;5030581;28;1906;-73
2023/01/22 11:10:55;;;;;;;;;;;;;;;;;;5031183;28;1287;-73
2023/01/22 11:13:26;;;;;;;;;;;;;;;;;;5030149;28;1198;-71
2023/01/22 11:15:55;;;;;;;;;;;;;;;;;;5030275;28;1263;-72
2023/01/22 11:18:32;;;;;;;;;;;;;;;;;;5029710;28;1176;-72
2023/01/22 11:20:59;;;;;;;;;;;;;;;;;;5030899;28;1302;-72
2023/01/22 11:23:43;;;;;;;;;;;;;;;;;;5033402;28;1128;-72
2023/01/22 11:26:09;;;;;;;;;;;;;;;;;;5034738;28;916;-72
2023/01/22 11:28:40;;;;;;;;;;;;;;;;;;5034057;28;1914;-72
2023/01/22 11:31:24;;;;;;;;;;;;;;;;;;5033188;28;1344;-72
2023/01/22 11:33:55;;;;;;;;;;;;;;;;;;5035510;28;853;-72
2023/01/22 11:36:30;;;;;;;;;;;;;;;;;;5033567;28;1188;-72
2023/01/22 11:39:05;;;;;;;;;;;;;;;;;;5035669;28;814;-73
2023/01/22 11:41:46;;;;;;;;;;;;;;;;;;5033865;28;1400;-73
2023/01/22 11:44:14;;;;;;;;;;;;;;;;;;5033162;28;1176;-73
2023/01/22 11:46:42;;;;;;;;;;;;;;;;;;5034978;28;881;-73
2023/01/22 11:49:26;;;;;;;;;;;;;;;;;;5034405;28;1903;-73
2023/01/22 11:52:04;;;;;;;;;;;;;;;;;;5034802;28;845;-73
2023/01/22 11:54:48;;;;;;;;;;;;;;;;;;5034646;28;841;-73
2023/01/22 11:57:32;;;;;;;;;;;;;;;;;;5033398;28;1402;-73
2023/01/22 12:00:16;;;;;;;;;;;;;;;;;;5034465;28;959;-73
2023/01/22 12:02:59;;;;;;;;;;;;;;;;;;5035044;28;884;-71
2023/01/22 12:05:31;;;;;;;;;;;;;;;;;;5032252;28;1275;-71
2023/01/22 12:08:15;;;;;;;;;;;;;;;;;;5032742;28;1985;-71
2023/01/22 12:10:56;;;;;;;;;;;;;;;;;;5034090;28;837;-70
2023/01/22 12:13:30;;;;;;;;;;;;;;;;;;5032198;28;1469;-70
2023/01/22 12:16:04;;;;;;;;;;;;;;;;;;5033543;28;1001;-70
2023/01/22 12:18:43;;;;;;;;;;;;;;;;;;5032836;28;1378;-70
2023/01/22 12:21:19;;;;;;;;;;;;;;;;;;5034344;28;1032;-70
2023/01/22 12:23:58;;;;;;;;;;;;;;;;;;5033368;28;1410;-70
2023/01/22 12:26:25;;;;;;;;;;;;;;;;;;5034253;28;880;-70
2023/01/22 12:29:09;;;;;;;;;;;;;;;;;;5034648;28;1894;-70
2023/01/22 12:31:42;;;;;;;;;;;;;;;;;;5032501;28;1204;-70
2023/01/22 12:34:20;;;;;;;;;;;;;;;;;;5031429;28;1173;-70
2023/01/22 12:36:46;;;;;;;;;;;;;;;;;;5032987;28;1219;-70
2023/01/22 12:39:22;;;;;;;;;;;;;;;;;;5033837;28;960;-70
2023/01/22 12:42:05;;;;;;;;;;;;;;;;;;5034020;28;873;-70
2023/01/22 12:44:31;;;;;;;;;;;;;;;;;;5032081;28;1289;-70
2023/01/22 12:47:02;;;;;;;;;;;;;;;;;;5033212;28;845;-70
2023/01/22 12:49:27;;;;;;;;;;;;;;;;;;5031572;28;1906;-70
2023/01/22 12:51:53;;;;;;;;;;;;;;;;;;5015573;28;1331;-70
2023/01/22 12:54:22;;;;;;;;;;;;;;;;;;5031528;28;1517;-70
2023/01/22 12:56:51;;;;;;;;;;;;;;;;;;5032108;28;1212;-70
2023/01/22 12:59:32;;;;;;;;;;;;;;;;;;5033303;28;904;-70
2023/01/22 13:02:00;;;;;;;;;;;;;;;;;;5033481;28;1062;-70
2023/01/22 13:04:29;;;;;;;;;;;;;;;;;;5033371;28;908;-70
2023/01/22 13:07:05;;;;;;;;;;;;;;;;;;5033312;28;868;-70
2023/01/22 13:09:34;;;;;;;;;;;;;;;;;;5032800;28;1940;-70
2023/01/22 13:12:09;;;;;;;;;;;;;;;;;;5031365;28;1421;-70
2023/01/22 13:14:38;;;;;;;;;;;;;;;;;;5031213;28;1246;-70
2023/01/22 13:17:16;;;;;;;;;;;;;;;;;;5032747;28;829;-69
2023/01/22 13:19:43;;;;;;;;;;;;;;;;;;5032967;28;1038;-69
2023/01/22 13:22:13;;;;;;;;;;;;;;;;;;5031476;28;1299;-70
2023/01/22 13:24:46;;;;;;;;;;;;;;;;;;5032697;28;864;-69
2023/01/22 13:27:20;;;;;;;;;;;;;;;;;;5029722;28;1971;-69
2023/01/22 13:29:45;;;;;;;;;;;;;;;;;;5031514;28;1206;-69
2023/01/22 13:32:18;;;;;;;;;;;;;;;;;;5031939;28;1257;-69
2023/01/22 13:34:43;;;;;;;;;;;;;;;;;;5031379;28;1148;-69
2023/01/22 13:37:21;;;;;;;;;;;;;;;;;;5031544;28;1099;-69
2023/01/22 13:39:47;;;;;;;;;;;;;;;;;;5032196;28;1374;-69
2023/01/22 13:42:12;;;;;;;;;;;;;;;;;;5032657;28;928;-69
2023/01/22 13:44:39;;;;;;;;;;;;;;;;;;5032225;28;837;-69
2023/01/22 13:47:04;;;;;;;;;;;;;;;;;;5031796;28;1322;-69
2023/01/22 13:49:50;;;;;;;;;;;;;;;;;;5032445;28;1902;-70
2023/01/22 13:52:17;;;;;;;;;;;;;;;;;;5031917;28;1229;-70
2023/01/22 13:54:45;;;;;;;;;;;;;;;;;;5032676;28;1086;-69
2023/01/22 13:57:11;;;;;;;;;;;;;;;;;;5028995;28;1214;-68
2023/01/22 13:59:37;;;;;;;;;;;;;;;;;;5032116;28;1268;-68
2023/01/22 14:02:17;;;;;;;;;;;;;;;;;;5032200;28;804;-68
2023/01/22 14:04:43;;;;;;;;;;;;;;;;;;5031764;28;1198;-68
2023/01/22 14:07:12;;;;;;;;;;;;;;;;;;5031573;28;826;-68
2023/01/22 14:09:39;;;;;;;;;;;;;;;;;;5031753;28;1334;-69
2023/01/22 14:12:13;;;;;;;;;;;;;;;;;;5031129;28;1367;-68
2023/01/22 14:14:42;;;;;;;;;;;;;;;;;;5031277;28;1251;-69
2023/01/22 14:17:18;;;;;;;;;;;;;;;;;;5031017;28;1371;-68
2023/01/22 14:19:44;;;;;;;;;;;;;;;;;;5031456;28;1220;-69
2023/01/22 14:22:09;;;;;;;;;;;;;;;;;;5033214;28;1077;-68
2023/01/22 14:24:34;;;;;;;;;;;;;;;;;;5031240;28;1278;-71
2023/01/22 14:27:00;;;;;;;;;;;;;;;;;;5031214;28;1368;-70
2023/01/22 14:29:25;;;;;;;;;;;;;;;;;;5031016;28;1978;-69
2023/01/22 14:31:50;;;;;;;;;;;;;;;;;;5032959;28;979;-71
2023/01/22 14:34:16;;;;;;;;;;;;;;;;;;5031543;28;937;-72
2023/01/22 14:36:43;;;;;;;;;;;;;;;;;;5032139;28;875;-69
2023/01/22 14:39:09;;;;;;;;;;;;;;;;;;5030845;28;873;-69
2023/01/22 14:41:34;;;;;;;;;;;;;;;;;;5031291;28;948;-70
2023/01/22 14:44:00;;;;;;;;;;;;;;;;;;5031168;28;1203;-68
2023/01/22 14:46:25;;;;;;;;;;;;;;;;;;5030763;28;1247;-69
2023/01/22 14:48:52;;;;;;;;;;;;;;;;;;5014961;28;1890;-67
2023/01/22 14:51:17;;;;;;;;;;;;;;;;;;5032459;28;935;-67
2023/01/22 14:53:42;;;;;;;;;;;;;;;;;;5030799;28;1256;-69
2023/01/22 14:56:07;;;;;;;;;;;;;;;;;;5032441;28;786;-68
2023/01/22 14:58:33;;;;;;;;;;;;;;;;;;5021306;28;1279;-67
2023/01/22 15:00:58;;;;;;;;;;;;;;;;;;5021619;28;1342;-68
2023/01/22 15:03:23;;;;;;;;;;;;;;;;;;5039482;28;802;-70
2023/01/22 15:05:52;;;;;;;;;;;;;;;;;;5038438;28;1164;-69
2023/01/22 15:08:17;;;;;;;;;;;;;;;;;;5037718;28;1956;-68
2023/01/22 15:10:42;;;;;;;;;;;;;;;;;;5021062;28;1350;-67
2023/01/22 15:13:08;;;;;;;;;;;;;;;;;;5038949;28;1027;-68
2023/01/22 15:15:33;;;;;;;;;;;;;;;;;;5037368;28;1318;-68
2023/01/22 15:17:58;;;;;;;;;;;;;;;;;;5037814;28;901;-67
2023/01/22 15:20:24;;;;;;;;;;;;;;;;;;5018569;28;1335;-67
2023/01/22 15:22:49;;;;;;;;;;;;;;;;;;5032684;28;1385;-68
2023/01/22 15:25:15;;;;;;;;;;;;;;;;;;5037075;28;1212;-67
2023/01/22 15:27:40;;;;;;;;;;;;;;;;;;5038808;28;1914;-67
2023/01/22 15:30:06;;;;;;;;;;;;;;;;;;5021531;28;1466;-68
2023/01/22 15:32:32;;;;;;;;;;;;;;;;;;5038622;28;861;-68
2023/01/22 15:34:57;;;;;;;;;;;;;;;;;;5037631;28;1272;-68
2023/01/22 15:37:24;;;;;;;;;;;;;;;;;;5038776;28;837;-69
2023/01/22 15:39:49;;;;;;;;;;;;;;;;;;5038438;28;806;-68
2023/01/22 15:42:14;;;;;;;;;;;;;;;;;;5037473;28;1207;-69
2023/01/22 15:44:40;;;;;;;;;;;;;;;;;;5037154;28;1152;-69
2023/01/22 15:47:05;;;;;;;;;;;;;;;;;;5037394;28;1173;-69
2023/01/22 15:49:31;;;;;;;;;;;;;;;;;;5037039;28;1971;-69
2023/01/22 15:51:56;;;;;;;;;;;;;;;;;;5020862;28;1354;-69
2023/01/22 15:54:21;;;;;;;;;;;;;;;;;;5020850;28;1331;-69
2023/01/22 15:56:47;;;;;;;;;;;;;;;;;;5037615;28;1302;-71
2023/01/22 15:59:12;;;;;;;;;;;;;;;;;;5037166;28;1271;-70
2023/01/22 16:01:38;;;;;;;;;;;;;;;;;;5036925;28;873;-71
2023/01/22 16:04:04;;;;;;;;;;;;;;;;;;5037481;28;1368;-70
2023/01/22 16:06:30;;;;;;;;;;;;;;;;;;5020216;28;1267;-69
2023/01/22 16:08:57;;;;;;;;;;;;;;;;;;5034420;28;1944;-70
2023/01/22 16:11:23;;;;;;;;;;;;;;;;;;5033884;28;1486;-70
2023/01/22 16:13:48;;;;;;;;;;;;;;;;;;5035265;28;743;-67
2023/01/22 16:16:15;;;;;;;;;;;;;;;;;;5034071;28;1272;-67
2023/01/22 16:18:41;;;;;;;;;;;;;;;;;;5035088;28;952;-68
2023/01/22 16:21:06;;;;;;;;;;;;;;;;;;5035168;28;999;-69
2023/01/22 16:23:33;;;;;;;;;;;;;;;;;;5016986;28;1325;-69
2023/01/22 16:25:59;;;;;;;;;;;;;;;;;;5033670;28;1195;-70
2023/01/22 16:28:25;;;;;;;;;;;;;;;;;;5034881;28;1914;-69
2023/01/22 16:30:50;;;;;;;;;;;;;;;;;;5033790;28;924;-70
2023/01/22 16:33:18;;;;;;;;;;;;;;;;;;5033799;28;1204;-69
2023/01/22 16:35:44;;;;;;;;;;;;;;;;;;5033553;28;1137;-69
2023/01/22 16:38:09;;;;;;;;;;;;;;;;;;5034627;28;920;-68
2023/01/22 16:40:35;;;;;;;;;;;;;;;;;;5016751;28;1283;-68
2023/01/22 16:43:01;;;;;;;;;;;;;;;;;;5035089;28;1011;-68
2023/01/22 16:45:27;;;;;;;;;;;;;;;;;;5016812;28;1391;-68
2023/01/22 16:47:52;;;;;;;;;;;;;;;;;;5033155;28;1957;-68
2023/01/22 16:50:17;;;;;;;;;;;;;;;;;;5033511;28;1052;-68
2023/01/22 16:52:43;;;;;;;;;;;;;;;;;;5033007;28;1139;-69
2023/01/22 16:55:10;;;;;;;;;;;;;;;;;;5034241;28;829;-68
2023/01/22 16:57:39;;;;;;;;;;;;;;;;;;5033490;28;1196;-69
2023/01/22 17:00:04;;;;;;;;;;;;;;;;;;5017320;28;1317;-69
2023/01/22 17:02:30;;;;;;;;;;;;;;;;;;5033541;28;1103;-69
2023/01/22 17:04:56;;;;;;;;;;;;;;;;;;5033622;28;861;-68
2023/01/22 17:07:25;;;;;;;;;;;;;;;;;;5032849;28;1898;-71
2023/01/22 17:09:50;;;;;;;;;;;;;;;;;;5016730;28;1315;-69
2023/01/22 17:12:16;;;;;;;;;;;;;;;;;;5033561;28;1331;-70
2023/01/22 17:14:45;;;;;;;;;;;;;;;;;;5016963;28;1413;-70
2023/01/22 17:17:11;;;;;;;;;;;;;;;;;;5017478;28;1220;-70